createdAt,value
2023-03-29T00:00:17.049Z,91.54
2023-03-29T00:02:19.878Z,91.32
2023-03-29T00:04:22.813Z,91.35
2023-03-29T00:06:25.964Z,91.53
2023-03-29T00:08:29.901Z,91.60
2023-03-29T00:10:33.787Z,91.72
2023-03-29T00:12:37.958Z,91.24
2023-03-29T00:14:40.551Z,91.84
2023-03-29T00:16:45.044Z,91.76
2023-03-29T00:18:48.187Z,92.03
2023-03-29T00:20:57.978Z,91.76
2023-03-29T00:23:00.782Z,91.58
2023-03-29T00:25:04.447Z,91.49
2023-03-29T00:27:07.101Z,91.52
2023-03-29T00:29:09.753Z,91.26
2023-03-29T00:31:17.355Z,91.55
2023-03-29T00:33:21.085Z,91.77
2023-03-29T00:35:23.724Z,91.98
2023-03-29T00:37:27.107Z,91.99
2023-03-29T00:39:30.616Z,91.89
2023-03-29T00:41:33.404Z,91.96
2023-03-29T00:43:59.925Z,92.74
2023-03-29T00:46:02.512Z,92.76
2023-03-29T00:48:09.235Z,92.51
2023-03-29T00:50:31.669Z,92.06
2023-03-29T00:52:35.946Z,92.93
2023-03-29T00:54:38.761Z,92.43
2023-03-29T00:56:45.255Z,92.97
2023-03-29T00:59:12.525Z,92.68
2023-03-29T01:01:26.182Z,93.13
2023-03-29T01:03:41.734Z,92.81
2023-03-29T01:05:48.981Z,93.32
2023-03-29T01:08:01.547Z,93.26
2023-03-29T01:10:14.698Z,93.35
2023-03-29T01:12:23.288Z,93.60
2023-03-29T01:14:51.225Z,94.01
2023-03-29T01:16:53.922Z,93.68
2023-03-29T01:18:58.643Z,93.96
2023-03-29T01:21:29.460Z,94.34
2023-03-29T01:23:43.816Z,94.29
2023-03-29T01:26:14.467Z,94.55
2023-03-29T01:28:23.491Z,94.91
2023-03-29T01:30:32.051Z,94.73
2023-03-29T01:32:42.440Z,94.51
2023-03-29T01:34:53.465Z,94.68
2023-03-29T01:37:04.676Z,94.48
2023-03-29T01:39:07.893Z,94.88
2023-03-29T01:41:12.470Z,94.56
2023-03-29T01:43:41.032Z,94.76
2023-03-29T01:45:55.824Z,95.00
2023-03-29T01:48:15.144Z,95.17
2023-03-29T01:50:26.818Z,95.40
2023-03-29T01:52:41.373Z,94.94
2023-03-29T01:55:04.609Z,95.46
2023-03-29T01:57:10.636Z,95.90
2023-03-29T01:59:32.474Z,95.80
2023-03-29T02:01:39.003Z,95.92
2023-03-29T02:03:47.454Z,95.35
2023-03-29T02:05:51.728Z,95.76
2023-03-29T02:07:55.936Z,95.45
2023-03-29T02:09:59.687Z,95.85
2023-03-29T02:12:04.408Z,96.08
2023-03-29T02:14:07.648Z,95.84
2023-03-29T02:16:12.747Z,95.31
2023-03-29T02:18:18.802Z,95.25
2023-03-29T02:20:27.712Z,95.99
2023-03-29T02:22:40.493Z,95.04
2023-03-29T02:24:46.649Z,95.05
2023-03-29T02:26:49.767Z,94.44
2023-03-29T02:28:53.529Z,94.38
2023-03-29T02:31:03.461Z,94.58
2023-03-29T02:33:39.556Z,93.75
2023-03-29T02:35:48.759Z,93.89
2023-03-29T02:37:54.649Z,93.50
2023-03-29T02:39:59.697Z,93.71
2023-03-29T02:42:04.267Z,92.91
2023-03-29T02:44:10.368Z,92.96
2023-03-29T02:46:14.978Z,93.29
2023-03-29T02:48:20.066Z,93.14
2023-03-29T02:50:24.746Z,93.26
2023-03-29T02:52:35.129Z,92.96
2023-03-29T02:54:43.661Z,92.83
2023-03-29T02:56:49.470Z,92.03
2023-03-29T02:58:52.040Z,92.35
2023-03-29T03:00:58.859Z,91.68
2023-03-29T03:03:02.100Z,91.53
2023-03-29T03:05:06.046Z,90.78
2023-03-29T03:07:08.961Z,90.85
2023-03-29T03:09:11.917Z,91.47
2023-03-29T03:11:15.446Z,90.52
2023-03-29T03:13:18.021Z,90.17
2023-03-29T03:15:21.112Z,90.65
2023-03-29T03:17:24.766Z,90.18
2023-03-29T03:19:27.486Z,90.17
2023-03-29T03:21:30.167Z,89.75
2023-03-29T03:23:32.742Z,89.48
2023-03-29T03:25:35.510Z,90.05
2023-03-29T03:27:39.980Z,89.28
2023-03-29T03:29:42.640Z,89.58
2023-03-29T03:31:45.417Z,89.48
2023-03-29T03:33:48.360Z,88.90
2023-03-29T03:35:51.070Z,88.85
2023-03-29T03:37:53.701Z,88.79
2023-03-29T03:39:56.719Z,88.99
2023-03-29T03:41:59.344Z,89.25
2023-03-29T03:44:02.066Z,89.06
2023-03-29T03:46:05.077Z,88.80
2023-03-29T03:48:07.798Z,88.38
2023-03-29T03:50:11.729Z,88.11
2023-03-29T03:52:14.653Z,87.32
2023-03-29T03:54:17.342Z,87.84
2023-03-29T03:56:20.661Z,87.97
2023-03-29T03:58:23.761Z,87.49
2023-03-29T04:00:26.767Z,87.57
2023-03-29T04:02:29.447Z,87.50
2023-03-29T04:04:32.167Z,87.69
2023-03-29T04:06:34.825Z,86.98
2023-03-29T04:08:37.436Z,86.85
2023-03-29T04:10:40.993Z,86.71
2023-03-29T04:12:43.776Z,86.24
2023-03-29T04:14:47.636Z,86.49
2023-03-29T04:16:50.203Z,86.86
2023-03-29T04:18:52.808Z,86.65
2023-03-29T04:20:55.979Z,86.16
2023-03-29T04:22:59.825Z,86.49
2023-03-29T04:25:04.778Z,86.64
2023-03-29T04:27:08.898Z,86.54
2023-03-29T04:29:11.988Z,86.35
2023-03-29T04:31:15.343Z,85.83
2023-03-29T04:33:18.218Z,85.80
2023-03-29T04:35:20.803Z,85.71
2023-03-29T04:37:23.421Z,85.16
2023-03-29T04:39:34.624Z,85.21
2023-03-29T04:41:37.391Z,85.53
2023-03-29T04:43:41.678Z,85.32
2023-03-29T04:45:45.009Z,84.89
2023-03-29T04:47:47.946Z,85.28
2023-03-29T04:49:50.616Z,85.10
2023-03-29T04:51:53.631Z,85.32
2023-03-29T04:53:56.211Z,85.50
2023-03-29T04:55:59.876Z,84.70
2023-03-29T04:58:03.440Z,84.58
2023-03-29T05:00:14.460Z,84.89
2023-03-29T05:02:17.259Z,85.01
2023-03-29T05:04:19.937Z,84.95
2023-03-29T05:06:22.713Z,85.13
2023-03-29T05:08:25.714Z,84.00
2023-03-29T05:10:28.411Z,85.04
2023-03-29T05:12:31.040Z,84.07
2023-03-29T05:14:33.805Z,83.45
2023-03-29T05:16:38.270Z,83.80
2023-03-29T05:18:40.922Z,83.34
2023-03-29T05:20:43.540Z,83.08
2023-03-29T05:22:46.215Z,83.49
2023-03-29T05:24:49.102Z,83.59
2023-03-29T05:26:54.747Z,83.17
2023-03-29T05:28:57.565Z,83.49
2023-03-29T05:31:02.460Z,82.73
2023-03-29T05:33:05.990Z,82.78
2023-03-29T05:35:09.655Z,81.99
2023-03-29T05:37:13.643Z,82.28
2023-03-29T05:39:16.237Z,82.14
2023-03-29T05:41:18.862Z,81.93
2023-03-29T05:43:21.875Z,81.77
2023-03-29T05:45:24.864Z,81.71
2023-03-29T05:47:28.686Z,81.19
2023-03-29T05:49:32.043Z,81.52
2023-03-29T05:51:35.580Z,81.12
2023-03-29T05:53:38.517Z,80.63
2023-03-29T05:55:41.607Z,80.12
2023-03-29T05:57:44.248Z,80.47
2023-03-29T05:59:47.147Z,79.50
2023-03-29T06:01:49.858Z,79.31
2023-03-29T06:03:52.946Z,79.61
2023-03-29T06:06:04.045Z,79.92
2023-03-29T06:08:06.730Z,79.41
2023-03-29T06:10:09.957Z,79.86
2023-03-29T06:12:12.677Z,79.79
2023-03-29T06:14:15.687Z,80.15
2023-03-29T06:16:19.150Z,79.30
2023-03-29T06:18:23.559Z,79.33
2023-03-29T06:20:27.269Z,78.67
2023-03-29T06:22:35.149Z,78.21
2023-03-29T06:24:38.392Z,78.08
2023-03-29T06:26:41.512Z,77.66
2023-03-29T06:28:44.156Z,77.59
2023-03-29T06:30:50.298Z,78.08
2023-03-29T06:32:54.962Z,77.55
2023-03-29T06:34:57.918Z,76.96
2023-03-29T06:37:01.048Z,77.32
2023-03-29T06:39:04.506Z,77.49
2023-03-29T06:41:09.165Z,76.96
2023-03-29T06:43:12.164Z,76.86
2023-03-29T06:45:15.035Z,76.29
2023-03-29T06:47:20.766Z,76.13
2023-03-29T06:49:23.801Z,75.90
2023-03-29T06:51:26.863Z,76.54
2023-03-29T06:53:31.050Z,76.31
2023-03-29T06:55:34.716Z,75.39
2023-03-29T06:57:39.047Z,75.66
2023-03-29T06:59:41.825Z,76.01
2023-03-29T07:01:45.579Z,76.00
2023-03-29T07:03:49.376Z,74.03
2023-03-29T07:05:53.133Z,74.05
2023-03-29T07:08:12.113Z,73.02
2023-03-29T07:10:15.276Z,73.11
2023-03-29T07:12:17.876Z,73.32
2023-03-29T07:14:20.399Z,72.54
2023-03-29T07:16:23.401Z,72.68
2023-03-29T07:18:26.606Z,72.10
2023-03-29T07:20:29.493Z,71.78
2023-03-29T07:22:32.969Z,70.72
2023-03-29T07:24:36.559Z,71.44
2023-03-29T07:26:46.126Z,71.31
2023-03-29T07:28:55.264Z,70.63
2023-03-29T07:31:11.134Z,70.82
2023-03-29T07:33:14.886Z,71.22
2023-03-29T07:35:18.487Z,70.41
2023-03-29T07:37:21.822Z,69.93
2023-03-29T07:39:25.674Z,70.08
2023-03-29T07:41:28.190Z,70.11
2023-03-29T07:43:30.860Z,70.31
2023-03-29T07:45:33.548Z,69.23
2023-03-29T07:47:36.754Z,68.18
2023-03-29T07:49:39.812Z,68.24
2023-03-29T07:51:42.434Z,68.56
2023-03-29T07:53:45.089Z,68.52
2023-03-29T07:55:49.326Z,67.49
2023-03-29T07:57:53.796Z,66.82
2023-03-29T07:59:56.377Z,67.15
2023-03-29T08:02:08.601Z,67.08
2023-03-29T08:04:15.081Z,67.28
2023-03-29T08:06:18.226Z,67.59
2023-03-29T08:08:21.233Z,67.40
2023-03-29T08:10:26.069Z,66.45
2023-03-29T08:12:28.906Z,66.08
2023-03-29T08:14:31.759Z,65.73
2023-03-29T08:16:34.360Z,66.18
2023-03-29T08:18:37.085Z,65.77
2023-03-29T08:20:39.673Z,65.85
2023-03-29T08:22:42.521Z,65.75
2023-03-29T08:24:45.083Z,66.20
2023-03-29T08:26:48.952Z,65.83
2023-03-29T08:28:51.726Z,65.54
2023-03-29T08:30:54.671Z,65.26
2023-03-29T08:32:57.474Z,64.83
2023-03-29T08:35:03.979Z,65.03
2023-03-29T08:37:06.767Z,64.86
2023-03-29T08:39:10.192Z,64.37
2023-03-29T08:41:28.955Z,63.89
2023-03-29T08:43:53.882Z,63.64
2023-03-29T08:46:14.440Z,63.45
2023-03-29T08:48:28.978Z,62.83
2023-03-29T08:50:38.876Z,62.95
2023-03-29T08:52:43.186Z,63.85
2023-03-29T08:57:10.686Z,63.06
2023-03-29T08:59:23.122Z,62.81
2023-03-29T09:01:32.061Z,63.05
2023-03-29T09:03:48.688Z,63.15
2023-03-29T09:06:12.757Z,63.85
2023-03-29T09:08:17.862Z,63.30
2023-03-29T09:10:25.935Z,63.29
2023-03-29T09:12:43.565Z,64.21
2023-03-29T09:15:06.853Z,63.85
2023-03-29T09:17:33.909Z,63.38
2023-03-29T09:19:54.876Z,63.04
2023-03-29T09:22:06.579Z,63.71
2023-03-29T09:24:17.846Z,62.96
2023-03-29T09:26:30.241Z,63.00
2023-03-29T09:29:16.802Z,62.96
2023-03-29T09:31:27.553Z,62.51
2023-03-29T09:33:50.701Z,61.61
2023-03-29T09:36:08.188Z,62.42
2023-03-29T09:38:14.220Z,62.36
2023-03-29T09:40:22.212Z,62.59
2023-03-29T09:42:29.488Z,61.24
2023-03-29T09:44:38.068Z,61.86
2023-03-29T09:46:54.069Z,62.09
2023-03-29T09:48:57.445Z,62.88
2023-03-29T09:51:02.340Z,62.82
2023-03-29T09:53:05.641Z,62.93
2023-03-29T09:55:14.538Z,62.38
2023-03-29T09:57:18.872Z,63.29
2023-03-29T09:59:22.073Z,63.58
2023-03-29T10:01:26.192Z,63.89
2023-03-29T10:03:31.273Z,64.41
2023-03-29T10:05:40.222Z,64.53
2023-03-29T10:07:52.211Z,63.93
2023-03-29T10:09:55.971Z,63.40
2023-03-29T10:12:03.813Z,63.64
2023-03-29T10:14:14.280Z,64.17
2023-03-29T10:16:22.893Z,63.83
2023-03-29T10:18:27.207Z,64.04
2023-03-29T10:20:30.160Z,63.18
2023-03-29T10:22:37.987Z,62.44
2023-03-29T10:24:40.824Z,63.21
2023-03-29T10:26:43.952Z,62.23
2023-03-29T10:28:46.763Z,62.64
2023-03-29T10:30:55.452Z,62.28
2023-03-29T10:33:00.174Z,62.60
2023-03-29T10:35:32.098Z,62.30
2023-03-29T10:37:35.070Z,62.26
2023-03-29T10:39:37.693Z,60.87
2023-03-29T10:41:40.686Z,61.21
2023-03-29T10:43:46.711Z,61.19
2023-03-29T10:45:55.367Z,61.23
2023-03-29T10:47:59.251Z,60.79
2023-03-29T10:50:07.639Z,60.17
2023-03-29T10:52:13.092Z,60.21
2023-03-29T10:54:22.101Z,60.44
2023-03-29T10:56:39.171Z,59.60
2023-03-29T10:59:00.442Z,59.86
2023-03-29T11:01:03.582Z,59.83
2023-03-29T11:03:09.945Z,59.64
2023-03-29T11:05:37.931Z,58.51
2023-03-29T11:08:05.173Z,58.99
2023-03-29T11:10:35.769Z,59.40
2023-03-29T11:12:57.150Z,58.83
2023-03-29T11:15:11.480Z,58.58
2023-03-29T11:17:55.040Z,58.09
2023-03-29T11:20:24.798Z,56.89
2023-03-29T11:22:53.667Z,57.24
2023-03-29T11:25:36.457Z,55.50
2023-03-29T11:28:08.143Z,54.61
2023-03-29T11:30:20.422Z,55.06
2023-03-29T11:32:47.492Z,54.31
2023-03-29T11:35:17.864Z,53.69
2023-03-29T11:37:36.632Z,54.15
2023-03-29T11:39:48.377Z,53.85
2023-03-29T11:41:57.524Z,53.20
2023-03-29T11:44:27.247Z,53.01
2023-03-29T11:47:13.668Z,52.52
2023-03-29T11:49:32.510Z,52.25
2023-03-29T11:51:41.583Z,52.30
2023-03-29T11:53:58.060Z,52.39
2023-03-29T11:56:14.555Z,52.33
2023-03-29T11:58:31.295Z,52.12
2023-03-29T12:00:45.839Z,52.06
2023-03-29T12:02:58.818Z,51.65
2023-03-29T12:05:11.815Z,51.69
2023-03-29T12:07:37.236Z,50.63
2023-03-29T12:09:54.443Z,50.85
2023-03-29T12:12:05.778Z,50.14
2023-03-29T12:14:15.650Z,50.71
2023-03-29T12:16:37.401Z,51.12
2023-03-29T12:18:43.196Z,49.92
2023-03-29T12:20:53.095Z,48.99
2023-03-29T12:22:56.215Z,49.23
2023-03-29T12:25:00.247Z,49.77
2023-03-29T12:27:26.607Z,48.64
2023-03-29T12:29:54.994Z,48.48
2023-03-29T12:32:30.027Z,48.10
2023-03-29T12:35:06.743Z,46.99
2023-03-29T12:37:41.624Z,47.38
2023-03-29T12:39:44.942Z,47.60
2023-03-29T12:41:51.979Z,47.85
2023-03-29T12:43:54.929Z,47.15
2023-03-29T12:46:23.471Z,47.37
2023-03-29T12:48:30.201Z,47.24
2023-03-29T12:50:43.233Z,46.68
2023-03-29T12:52:46.546Z,47.06
2023-03-29T12:54:58.133Z,46.20
2023-03-29T12:57:19.569Z,46.42
2023-03-29T12:59:38.955Z,45.21
2023-03-29T13:01:57.660Z,46.10
2023-03-29T13:04:01.573Z,45.71
2023-03-29T13:06:08.758Z,44.41
2023-03-29T13:08:22.380Z,43.77
2023-03-29T13:10:37.927Z,42.97
2023-03-29T13:12:47.631Z,43.68
2023-03-29T13:14:54.473Z,43.76
2023-03-29T13:17:18.493Z,43.39
2023-03-29T13:19:21.685Z,43.64
2023-03-29T13:21:38.028Z,43.51
2023-03-29T13:23:57.994Z,43.22
2023-03-29T13:26:28.233Z,43.15
2023-03-29T13:28:31.209Z,44.26
2023-03-29T13:30:45.718Z,43.60
2023-03-29T13:33:12.128Z,44.12
2023-03-29T13:35:31.616Z,43.87
2023-03-29T13:37:58.074Z,43.83
2023-03-29T13:40:00.710Z,44.61
2023-03-29T13:42:26.665Z,44.88
2023-03-29T13:44:42.163Z,44.26
2023-03-29T13:46:48.073Z,44.27
2023-03-29T13:49:21.839Z,43.86
2023-03-29T13:51:34.024Z,43.25
2023-03-29T13:54:06.330Z,43.59
2023-03-29T13:56:20.294Z,43.53
2023-03-29T13:59:01.921Z,43.33
2023-03-29T14:01:12.406Z,42.75
2023-03-29T14:03:20.689Z,42.99
2023-03-29T14:05:37.620Z,42.97
2023-03-29T14:07:44.841Z,42.52
2023-03-29T14:09:50.594Z,41.79
2023-03-29T14:11:53.915Z,41.68
2023-03-29T14:13:58.981Z,41.32
2023-03-29T14:16:07.014Z,41.44
2023-03-29T14:18:12.644Z,41.56
2023-03-29T14:20:15.865Z,41.94
2023-03-29T14:22:21.136Z,42.46
2023-03-29T14:24:28.755Z,42.18
2023-03-29T14:26:34.658Z,41.84
2023-03-29T14:28:37.822Z,41.75
2023-03-29T14:30:45.771Z,41.35
2023-03-29T14:32:50.595Z,41.98
2023-03-29T14:34:53.228Z,41.65
2023-03-29T14:36:55.937Z,42.04
2023-03-29T14:39:04.338Z,42.40
2023-03-29T14:41:07.730Z,42.53
2023-03-29T14:43:14.108Z,43.31
2023-03-29T14:45:18.847Z,43.25
2023-03-29T14:47:28.718Z,42.52
2023-03-29T14:49:32.399Z,42.73
2023-03-29T14:51:36.241Z,42.93
2023-03-29T14:53:39.848Z,45.37
2023-03-29T14:55:46.023Z,44.63
2023-03-29T14:57:49.971Z,45.15
2023-03-29T14:59:55.483Z,44.84
2023-03-29T15:01:58.153Z,44.95
2023-03-29T15:04:09.259Z,44.89
2023-03-29T15:06:13.753Z,45.95
2023-03-29T15:08:34.294Z,46.54
2023-03-29T15:10:38.326Z,46.83
2023-03-29T15:12:43.266Z,46.79
2023-03-29T15:14:46.460Z,46.97
2023-03-29T15:16:52.012Z,47.48
2023-03-29T15:18:54.736Z,48.21
2023-03-29T15:20:57.508Z,48.28
2023-03-29T15:23:04.677Z,48.71
2023-03-29T15:25:17.737Z,48.88
2023-03-29T15:27:21.240Z,49.12
2023-03-29T15:29:23.858Z,49.45
2023-03-29T15:31:34.873Z,50.17
2023-03-29T15:33:39.800Z,49.97
2023-03-29T15:35:44.185Z,49.77
2023-03-29T15:37:47.330Z,50.06
2023-03-29T15:39:49.960Z,50.23
2023-03-29T15:41:53.921Z,50.53
2023-03-29T15:43:56.860Z,50.44
2023-03-29T15:45:59.627Z,50.93
2023-03-29T15:48:04.985Z,50.85
2023-03-29T15:50:07.757Z,51.44
2023-03-29T15:52:10.325Z,50.67
2023-03-29T15:54:12.920Z,51.07
2023-03-29T15:56:23.067Z,51.26
2023-03-29T15:58:29.306Z,51.43
2023-03-29T16:00:32.444Z,52.12
2023-03-29T16:02:35.888Z,52.07
2023-03-29T16:04:38.470Z,51.80
2023-03-29T16:06:42.019Z,51.71
2023-03-29T16:08:44.643Z,51.74
2023-03-29T16:10:47.257Z,51.64
2023-03-29T16:12:49.876Z,51.68
2023-03-29T16:14:52.555Z,52.63
2023-03-29T16:16:55.777Z,51.71
2023-03-29T16:18:58.377Z,52.19
2023-03-29T16:21:01.167Z,52.28
2023-03-29T16:23:09.047Z,51.62
2023-03-29T16:25:18.492Z,51.75
2023-03-29T16:27:21.077Z,51.89
2023-03-29T16:29:27.647Z,51.83
2023-03-29T16:31:30.505Z,52.03
2023-03-29T16:33:33.360Z,52.16
2023-03-29T16:35:38.768Z,52.14
2023-03-29T16:37:41.517Z,52.27
2023-03-29T16:39:44.146Z,52.23
2023-03-29T16:41:49.214Z,52.79
2023-03-29T16:43:51.978Z,52.42
2023-03-29T16:45:54.610Z,52.94
2023-03-29T16:47:58.146Z,52.94
2023-03-29T16:50:00.929Z,52.94
2023-03-29T16:52:04.684Z,53.24
2023-03-29T16:54:08.943Z,53.20
2023-03-29T16:56:11.514Z,52.88
2023-03-29T16:58:15.638Z,53.47
2023-03-29T17:00:20.139Z,52.98
2023-03-29T17:02:22.733Z,53.03
2023-03-29T17:04:25.391Z,53.13
2023-03-29T17:06:28.378Z,53.53
2023-03-29T17:08:31.261Z,53.37
2023-03-29T17:10:33.817Z,53.28
2023-03-29T17:12:36.891Z,53.37
2023-03-29T17:14:39.791Z,53.89
2023-03-29T17:16:42.594Z,53.33
2023-03-29T17:18:49.396Z,53.95
2023-03-29T17:20:56.038Z,53.96
2023-03-29T17:22:58.935Z,54.02
2023-03-29T17:25:12.014Z,53.78
2023-03-29T17:27:15.709Z,53.83
2023-03-29T17:29:18.356Z,54.19
2023-03-29T17:31:21.550Z,54.19
2023-03-29T17:33:26.458Z,54.32
2023-03-29T17:35:29.175Z,54.59
2023-03-29T17:37:31.902Z,55.16
2023-03-29T17:39:37.716Z,55.19
2023-03-29T17:41:40.391Z,54.58
2023-03-29T17:43:43.029Z,55.12
2023-03-29T17:45:46.425Z,54.95
2023-03-29T17:47:49.149Z,55.08
2023-03-29T17:49:51.951Z,55.52
2023-03-29T17:51:54.601Z,55.69
2023-03-29T17:53:58.435Z,55.39
2023-03-29T17:56:01.359Z,55.52
2023-03-29T17:58:04.450Z,55.81
2023-03-29T18:00:10.780Z,56.47
2023-03-29T18:02:22.110Z,56.43
2023-03-29T18:04:25.029Z,56.39
2023-03-29T18:06:27.605Z,56.51
2023-03-29T18:08:31.602Z,56.79
2023-03-29T18:10:34.196Z,56.96
2023-03-29T18:12:36.962Z,57.49
2023-03-29T18:14:39.614Z,57.34
2023-03-29T18:16:42.387Z,57.93
2023-03-29T18:18:46.446Z,57.65
2023-03-29T18:20:49.089Z,57.76
2023-03-29T18:22:51.756Z,57.98
2023-03-29T18:24:55.193Z,58.14
2023-03-29T18:26:57.804Z,58.48
2023-03-29T18:29:00.864Z,58.03
2023-03-29T18:31:04.716Z,58.78
2023-03-29T18:33:07.336Z,59.22
2023-03-29T18:35:10.433Z,59.31
2023-03-29T18:37:15.231Z,59.19
2023-03-29T18:39:17.828Z,59.27
2023-03-29T18:41:20.551Z,59.38
2023-03-29T18:43:23.205Z,60.01
2023-03-29T18:45:25.798Z,60.24
2023-03-29T18:47:29.199Z,60.05
2023-03-29T18:49:32.756Z,60.36
2023-03-29T18:51:35.712Z,60.07
2023-03-29T18:53:39.535Z,60.06
2023-03-29T18:55:45.386Z,60.63
2023-03-29T18:57:47.919Z,61.15
2023-03-29T18:59:50.517Z,61.55
2023-03-29T19:01:53.197Z,61.74
2023-03-29T19:03:56.123Z,61.40
2023-03-29T19:05:59.340Z,61.40
2023-03-29T19:08:02.947Z,61.43
2023-03-29T19:10:09.389Z,62.10
2023-03-29T19:12:12.050Z,62.11
2023-03-29T19:14:15.019Z,61.87
2023-03-29T19:16:17.848Z,62.31
2023-03-29T19:18:20.616Z,62.63
2023-03-29T19:20:25.613Z,62.30
2023-03-29T19:22:28.549Z,63.39
2023-03-29T19:24:31.356Z,62.83
2023-03-29T19:26:34.136Z,63.58
2023-03-29T19:28:36.787Z,63.95
2023-03-29T19:30:39.449Z,63.56
2023-03-29T19:32:42.146Z,63.78
2023-03-29T19:34:44.731Z,63.75
2023-03-29T19:36:47.273Z,64.16
2023-03-29T19:38:50.320Z,64.23
2023-03-29T19:40:53.219Z,64.56
2023-03-29T19:42:55.870Z,64.14
2023-03-29T19:44:58.589Z,64.82
2023-03-29T19:47:02.727Z,64.47
2023-03-29T19:49:07.823Z,65.17
2023-03-29T19:51:11.016Z,65.16
2023-03-29T19:53:13.938Z,65.27
2023-03-29T19:55:16.806Z,65.27
2023-03-29T19:57:19.418Z,65.45
2023-03-29T19:59:22.941Z,65.65
2023-03-29T20:01:27.431Z,66.20
2023-03-29T20:03:30.094Z,66.25
2023-03-29T20:05:35.131Z,66.54
2023-03-29T20:07:38.184Z,66.28
2023-03-29T20:09:44.564Z,66.77
2023-03-29T20:11:47.879Z,66.89
2023-03-29T20:13:50.616Z,67.43
2023-03-29T20:15:53.583Z,67.16
2023-03-29T20:17:59.419Z,67.07
2023-03-29T20:20:08.440Z,67.50
2023-03-29T20:22:12.404Z,67.02
2023-03-29T20:24:15.246Z,67.51
2023-03-29T20:26:17.825Z,67.88
2023-03-29T20:28:20.365Z,68.16
2023-03-29T20:30:24.013Z,68.39
2023-03-29T20:32:26.736Z,68.67
2023-03-29T20:34:29.649Z,68.87
2023-03-29T20:36:32.386Z,68.77
2023-03-29T20:38:35.900Z,68.72
2023-03-29T20:40:41.004Z,68.55
2023-03-29T20:42:46.407Z,68.74
2023-03-29T20:44:50.668Z,68.78
2023-03-29T20:47:03.549Z,69.23
2023-03-29T20:49:09.041Z,68.81
2023-03-29T20:51:14.239Z,69.17
2023-03-29T20:53:18.528Z,69.54
2023-03-29T20:55:25.896Z,69.50
2023-03-29T20:57:30.322Z,69.70
2023-03-29T20:59:34.521Z,70.33
2023-03-29T21:01:40.919Z,70.48
2023-03-29T21:03:43.834Z,70.45
2023-03-29T21:05:46.506Z,70.17
2023-03-29T21:07:49.034Z,70.14
2023-03-29T21:09:51.617Z,70.09
2023-03-29T21:11:54.291Z,70.66
2023-03-29T21:13:56.829Z,70.33
2023-03-29T21:16:01.053Z,70.60
2023-03-29T21:18:04.767Z,71.10
2023-03-29T21:20:10.145Z,71.09
2023-03-29T21:22:15.956Z,70.84
2023-03-29T21:24:19.211Z,70.84
2023-03-29T21:26:22.966Z,71.05
2023-03-29T21:28:25.700Z,71.60
2023-03-29T21:30:30.095Z,71.26
2023-03-29T21:32:35.183Z,70.96
2023-03-29T21:34:37.900Z,71.44
2023-03-29T21:36:40.694Z,71.85
2023-03-29T21:38:43.255Z,71.92
2023-03-29T21:40:45.947Z,72.08
2023-03-29T21:42:48.541Z,72.10
2023-03-29T21:44:51.355Z,72.11
2023-03-29T21:46:54.061Z,71.69
2023-03-29T21:48:56.784Z,71.87
2023-03-29T21:50:59.514Z,72.52
2023-03-29T21:53:02.209Z,71.94
2023-03-29T21:55:06.159Z,72.41
2023-03-29T21:57:08.963Z,72.24
2023-03-29T21:59:12.059Z,72.25
2023-03-29T22:01:14.780Z,72.27
2023-03-29T22:03:17.406Z,72.00
2023-03-29T22:05:20.056Z,72.34
2023-03-29T22:07:26.658Z,72.23
2023-03-29T22:09:29.271Z,71.92
2023-03-29T22:11:31.948Z,71.53
2023-03-29T22:13:34.779Z,72.33
2023-03-29T22:15:37.384Z,72.50
2023-03-29T22:17:42.976Z,72.24
2023-03-29T22:19:47.666Z,72.02
2023-03-29T22:21:51.493Z,71.48
2023-03-29T22:23:56.476Z,72.28
2023-03-29T22:25:59.116Z,72.05
2023-03-29T22:28:01.649Z,72.19
2023-03-29T22:30:05.753Z,72.02
2023-03-29T22:32:08.414Z,71.67
2023-03-29T22:34:11.573Z,71.69
2023-03-29T22:36:26.404Z,71.60
2023-03-29T22:38:29.570Z,71.65
2023-03-29T22:40:33.515Z,71.85
2023-03-29T22:42:36.206Z,71.56
2023-03-29T22:44:38.837Z,71.69
2023-03-29T22:46:41.501Z,71.05
2023-03-29T22:48:44.145Z,72.11
2023-03-29T22:50:47.480Z,71.74
2023-03-29T22:52:50.041Z,71.73
2023-03-29T22:54:52.857Z,71.62
2023-03-29T22:56:56.009Z,71.51
2023-03-29T22:58:58.640Z,71.54
2023-03-29T23:01:01.499Z,71.36
2023-03-29T23:03:04.474Z,71.66
2023-03-29T23:05:07.880Z,71.65
2023-03-29T23:07:10.465Z,72.43
2023-03-29T23:09:15.878Z,72.00
2023-03-29T23:11:19.100Z,71.89
2023-03-29T23:13:26.031Z,71.74
2023-03-29T23:15:29.615Z,71.55
2023-03-29T23:17:35.815Z,71.64
2023-03-29T23:19:38.456Z,71.71
2023-03-29T23:21:41.037Z,71.60
2023-03-29T23:23:43.617Z,71.79
2023-03-29T23:25:47.912Z,71.45
2023-03-29T23:27:51.072Z,71.44
2023-03-29T23:29:53.660Z,71.59
2023-03-29T23:31:57.764Z,71.72
2023-03-29T23:34:00.366Z,72.27
2023-03-29T23:36:06.003Z,71.55
2023-03-29T23:38:08.671Z,72.11
2023-03-29T23:40:15.623Z,71.58
2023-03-29T23:42:18.314Z,71.51
2023-03-29T23:44:20.894Z,71.85
2023-03-29T23:46:23.582Z,71.66
2023-03-29T23:48:26.404Z,71.33
2023-03-29T23:50:29.019Z,71.76
2023-03-29T23:52:35.910Z,72.14
2023-03-29T23:54:38.528Z,71.96
2023-03-29T23:56:41.232Z,71.93
2023-03-29T23:58:44.799Z,71.48
